sensor_id;sensor_type;location;lat;lon;timestamp;pressure;altitude;pressure_sealevel;temperature;humidity
55032;BME280;40928;51.076;7.950;2022-08-03T00:01:04;97208.81;;;16.23;86.93
55032;BME280;40928;51.076;7.950;2022-08-03T00:03:30;97214.44;;;16.21;86.97
55032;BME280;40928;51.076;7.950;2022-08-03T00:05:55;97216.63;;;16.14;87.29
55032;BME280;40928;51.076;7.950;2022-08-03T00:08:21;97201.81;;;16.11;87.60
55032;BME280;40928;51.076;7.950;2022-08-03T00:10:47;97203.16;;;16.09;87.65
55032;BME280;40928;51.076;7.950;2022-08-03T00:13:12;97198.28;;;16.11;87.71
55032;BME280;40928;51.076;7.950;2022-08-03T00:15:40;97198.56;;;16.09;87.76
55032;BME280;40928;51.076;7.950;2022-08-03T00:18:06;97192.38;;;16.09;87.79
55032;BME280;40928;51.076;7.950;2022-08-03T00:20:31;97188.34;;;16.06;88.14
55032;BME280;40928;51.076;7.950;2022-08-03T00:22:57;97186.19;;;16.03;88.12
55032;BME280;40928;51.076;7.950;2022-08-03T00:25:23;97191.03;;;16.01;88.30
55032;BME280;40928;51.076;7.950;2022-08-03T00:27:48;97182.41;;;15.99;88.48
55032;BME280;40928;51.076;7.950;2022-08-03T00:30:14;97179.16;;;15.97;88.56
55032;BME280;40928;51.076;7.950;2022-08-03T00:32:40;97174.34;;;15.94;88.49
55032;BME280;40928;51.076;7.950;2022-08-03T00:35:06;97174.88;;;15.91;89.07
55032;BME280;40928;51.076;7.950;2022-08-03T00:37:31;97179.72;;;15.89;88.91
55032;BME280;40928;51.076;7.950;2022-08-03T00:39:57;97175.69;;;15.86;89.12
55032;BME280;40928;51.076;7.950;2022-08-03T00:42:22;97177.56;;;15.86;89.05
55032;BME280;40928;51.076;7.950;2022-08-03T00:44:48;97166.00;;;15.85;89.07
55032;BME280;40928;51.076;7.950;2022-08-03T00:47:13;97176.97;;;15.83;89.12
55032;BME280;40928;51.076;7.950;2022-08-03T00:49:40;97174.56;;;15.82;89.13
55032;BME280;40928;51.076;7.950;2022-08-03T00:52:10;97166.75;;;15.80;89.24
55032;BME280;40928;51.076;7.950;2022-08-03T00:54:39;97170.25;;;15.76;89.36
55032;BME280;40928;51.076;7.950;2022-08-03T00:57:05;97170.78;;;15.73;89.98
55032;BME280;40928;51.076;7.950;2022-08-03T00:59:31;97161.91;;;15.67;90.17
55032;BME280;40928;51.076;7.950;2022-08-03T01:01:56;97166.50;;;15.66;89.84
55032;BME280;40928;51.076;7.950;2022-08-03T01:04:22;97174.03;;;15.64;90.29
55032;BME280;40928;51.076;7.950;2022-08-03T01:06:51;97175.09;;;15.63;90.22
55032;BME280;40928;51.076;7.950;2022-08-03T01:12:14;97175.09;;;15.53;90.89
55032;BME280;40928;51.076;7.950;2022-08-03T01:15:24;97168.88;;;15.52;91.00
55032;BME280;40928;51.076;7.950;2022-08-03T01:18:04;97173.47;;;15.52;90.95
55032;BME280;40928;51.076;7.950;2022-08-03T01:20:34;97166.47;;;15.51;90.87
55032;BME280;40928;51.076;7.950;2022-08-03T01:28:51;97166.97;;;15.43;91.05
55032;BME280;40928;51.076;7.950;2022-08-03T01:31:25;97168.34;;;15.40;91.07
55032;BME280;40928;51.076;7.950;2022-08-03T01:33:57;97171.31;;;15.38;91.69
55032;BME280;40928;51.076;7.950;2022-08-03T01:36:33;97161.88;;;15.36;91.52
55032;BME280;40928;51.076;7.950;2022-08-03T01:39:02;97153.25;;;15.34;91.78
55032;BME280;40928;51.076;7.950;2022-08-03T01:41:30;97158.91;;;15.32;91.84
55032;BME280;40928;51.076;7.950;2022-08-03T01:44:00;97158.09;;;15.32;91.80
55032;BME280;40928;51.076;7.950;2022-08-03T01:46:27;97160.25;;;15.30;91.76
55032;BME280;40928;51.076;7.950;2022-08-03T01:48:54;97157.81;;;15.28;91.66
55032;BME280;40928;51.076;7.950;2022-08-03T01:51:21;97152.44;;;15.28;91.68
55032;BME280;40928;51.076;7.950;2022-08-03T01:53:48;97154.31;;;15.28;91.51
55032;BME280;40928;51.076;7.950;2022-08-03T01:56:17;97150.53;;;15.23;91.74
55032;BME280;40928;51.076;7.950;2022-08-03T01:58:44;97151.06;;;15.20;91.69
55032;BME280;40928;51.076;7.950;2022-08-03T02:01:11;97151.88;;;15.16;91.94
55032;BME280;40928;51.076;7.950;2022-08-03T02:03:39;97149.16;;;15.11;92.42
55032;BME280;40928;51.076;7.950;2022-08-03T02:06:09;97146.47;;;15.11;92.32
55032;BME280;40928;51.076;7.950;2022-08-03T02:08:36;97148.09;;;15.12;92.19
55032;BME280;40928;51.076;7.950;2022-08-03T02:11:04;97145.94;;;15.14;92.06
55032;BME280;40928;51.076;7.950;2022-08-03T02:13:32;97145.94;;;15.14;92.01
55032;BME280;40928;51.076;7.950;2022-08-03T02:15:58;97149.72;;;15.13;92.01
55032;BME280;40928;51.076;7.950;2022-08-03T02:18:26;97147.56;;;15.10;92.00
55032;BME280;40928;51.076;7.950;2022-08-03T02:20:52;97151.06;;;15.10;91.87
55032;BME280;40928;51.076;7.950;2022-08-03T02:23:18;97149.16;;;15.05;92.76
55032;BME280;40928;51.076;7.950;2022-08-03T02:25:46;97151.03;;;15.05;92.50
55032;BME280;40928;51.076;7.950;2022-08-03T02:28:17;97143.75;;;14.95;92.92
55032;BME280;40928;51.076;7.950;2022-08-03T02:30:45;97158.28;;;14.94;92.77
55032;BME280;40928;51.076;7.950;2022-08-03T02:33:22;97143.47;;;14.91;92.88
55032;BME280;40928;51.076;7.950;2022-08-03T02:35:50;97146.44;;;14.90;92.92
55032;BME280;40928;51.076;7.950;2022-08-03T02:38:19;97149.13;;;14.90;92.91
55032;BME280;40928;51.076;7.950;2022-08-03T02:40:45;97143.47;;;14.86;93.19
55032;BME280;40928;51.076;7.950;2022-08-03T02:43:17;97146.94;;;14.87;92.91
55032;BME280;40928;51.076;7.950;2022-08-03T02:45:46;97144.00;;;14.83;93.10
55032;BME280;40928;51.076;7.950;2022-08-03T02:48:16;97145.84;;;14.77;93.39
55032;BME280;40928;51.076;7.950;2022-08-03T02:50:43;97147.44;;;14.73;93.59
55032;BME280;40928;51.076;7.950;2022-08-03T02:53:10;97141.78;;;14.70;93.78
55032;BME280;40928;51.076;7.950;2022-08-03T02:55:38;97137.22;;;14.70;94.11
55032;BME280;40928;51.076;7.950;2022-08-03T02:58:05;97135.59;;;14.69;93.90
55032;BME280;40928;51.076;7.950;2022-08-03T03:00:32;97136.41;;;14.70;93.92
55032;BME280;40928;51.076;7.950;2022-08-03T03:03:01;97146.34;;;14.69;93.83
55032;BME280;40928;51.076;7.950;2022-08-03T03:05:29;97134.78;;;14.69;94.09
55032;BME280;40928;51.076;7.950;2022-08-03T03:07:56;97149.31;;;14.68;94.09
55032;BME280;40928;51.076;7.950;2022-08-03T03:10:22;97143.41;;;14.71;94.02
55032;BME280;40928;51.076;7.950;2022-08-03T03:12:56;97142.06;;;14.73;93.92
55032;BME280;40928;51.076;7.950;2022-08-03T03:15:23;97144.19;;;14.71;93.95
55032;BME280;40928;51.076;7.950;2022-08-03T03:17:50;97136.91;;;14.67;94.32
55032;BME280;40928;51.076;7.950;2022-08-03T03:20:19;97139.03;;;14.65;93.86
55032;BME280;40928;51.076;7.950;2022-08-03T03:22:46;97142.78;;;14.64;94.24
55032;BME280;40928;51.076;7.950;2022-08-03T03:25:12;97143.06;;;14.62;94.01
55032;BME280;40928;51.076;7.950;2022-08-03T03:27:38;97137.69;;;14.62;94.02
55032;BME280;40928;51.076;7.950;2022-08-03T03:30:04;97147.38;;;14.63;93.94
55032;BME280;40928;51.076;7.950;2022-08-03T03:32:30;97154.59;;;14.62;94.07
55032;BME280;40928;51.076;7.950;2022-08-03T03:34:56;97148.69;;;14.60;94.18
55032;BME280;40928;51.076;7.950;2022-08-03T03:37:25;97150.31;;;14.61;94.04
55032;BME280;40928;51.076;7.950;2022-08-03T03:39:52;97154.88;;;14.61;94.04
55032;BME280;40928;51.076;7.950;2022-08-03T03:42:18;97142.22;;;14.56;94.24
55032;BME280;40928;51.076;7.950;2022-08-03T03:44:43;97150.53;;;14.55;94.25
55032;BME280;40928;51.076;7.950;2022-08-03T03:47:09;97154.28;;;14.54;94.39
55032;BME280;40928;51.076;7.950;2022-08-03T03:49:35;97151.59;;;14.54;94.00
55032;BME280;40928;51.076;7.950;2022-08-03T03:52:00;97155.13;;;14.54;94.12
55032;BME280;40928;51.076;7.950;2022-08-03T03:54:38;97152.69;;;14.53;94.51
55032;BME280;40928;51.076;7.950;2022-08-03T03:57:03;97149.19;;;14.52;94.11
55032;BME280;40928;51.076;7.950;2022-08-03T03:59:29;97148.38;;;14.52;94.26
55032;BME280;40928;51.076;7.950;2022-08-03T04:01:54;97142.44;;;14.50;94.20
55032;BME280;40928;51.076;7.950;2022-08-03T04:04:20;97147.03;;;14.49;94.25
55032;BME280;40928;51.076;7.950;2022-08-03T04:07:04;97145.97;;;14.50;94.46
55032;BME280;40928;51.076;7.950;2022-08-03T04:09:48;97145.13;;;14.50;94.25
55032;BME280;40928;51.076;7.950;2022-08-03T04:12:35;97148.88;;;14.49;94.40
55032;BME280;40928;51.076;7.950;2022-08-03T04:15:02;97144.63;;;14.48;94.25
55032;BME280;40928;51.076;7.950;2022-08-03T04:17:29;97148.66;;;14.50;94.22
55032;BME280;40928;51.076;7.950;2022-08-03T04:19:57;97145.69;;;14.46;94.52
55032;BME280;40928;51.076;7.950;2022-08-03T04:22:26;97141.94;;;14.48;94.49
55032;BME280;40928;51.076;7.950;2022-08-03T04:25:06;97140.81;;;14.49;94.54
55032;BME280;40928;51.076;7.950;2022-08-03T04:27:36;97143.00;;;14.46;94.60
55032;BME280;40928;51.076;7.950;2022-08-03T04:30:06;97144.63;;;14.48;94.66
55032;BME280;40928;51.076;7.950;2022-08-03T04:32:36;97140.00;;;14.38;95.85
55032;BME280;40928;51.076;7.950;2022-08-03T04:35:05;97141.03;;;14.31;95.90
55032;BME280;40928;51.076;7.950;2022-08-03T04:37:48;97136.47;;;14.32;96.07
55032;BME280;40928;51.076;7.950;2022-08-03T04:40:34;97147.50;;;14.41;95.68
55032;BME280;40928;51.076;7.950;2022-08-03T04:43:01;97144.63;;;14.48;95.79
55032;BME280;40928;51.076;7.950;2022-08-03T04:45:29;97147.56;;;14.51;95.46
55032;BME280;40928;51.076;7.950;2022-08-03T04:47:56;97150.53;;;14.55;95.48
55032;BME280;40928;51.076;7.950;2022-08-03T04:50:21;97156.19;;;14.53;95.78
55032;BME280;40928;51.076;7.950;2022-08-03T04:53:02;97155.38;;;14.53;96.27
55032;BME280;40928;51.076;7.950;2022-08-03T04:55:30;97162.91;;;14.56;95.87
55032;BME280;40928;51.076;7.950;2022-08-03T04:57:57;97168.88;;;14.63;95.76
55032;BME280;40928;51.076;7.950;2022-08-03T05:00:23;97159.19;;;14.67;95.59
55032;BME280;40928;51.076;7.950;2022-08-03T05:02:48;97161.66;;;14.74;95.55
55032;BME280;40928;51.076;7.950;2022-08-03T05:05:15;97164.94;;;14.81;95.11
55032;BME280;40928;51.076;7.950;2022-08-03T05:07:41;97160.94;;;14.89;94.91
55032;BME280;40928;51.076;7.950;2022-08-03T05:10:08;97164.19;;;14.96;94.79
55032;BME280;40928;51.076;7.950;2022-08-03T05:12:34;97163.69;;;15.04;94.50
55032;BME280;40928;51.076;7.950;2022-08-03T05:15:00;97169.09;;;15.10;94.20
55032;BME280;40928;51.076;7.950;2022-08-03T05:17:27;97161.53;;;15.12;94.47
55032;BME280;40928;51.076;7.950;2022-08-03T05:19:53;97161.28;;;15.13;94.53
55032;BME280;40928;51.076;7.950;2022-08-03T05:22:19;97160.22;;;15.19;94.77
55032;BME280;40928;51.076;7.950;2022-08-03T05:24:45;97167.22;;;15.26;94.63
55032;BME280;40928;51.076;7.950;2022-08-03T05:27:10;97156.75;;;15.34;94.88
55032;BME280;40928;51.076;7.950;2022-08-03T05:29:42;97162.44;;;15.43;94.44
55032;BME280;40928;51.076;7.950;2022-08-03T05:32:07;97166.47;;;15.51;94.38
55032;BME280;40928;51.076;7.950;2022-08-03T05:34:33;97169.97;;;15.57;94.52
55032;BME280;40928;51.076;7.950;2022-08-03T05:36:59;97167.31;;;15.62;94.22
55032;BME280;40928;51.076;7.950;2022-08-03T05:39:24;97161.38;;;15.70;94.22
55032;BME280;40928;51.076;7.950;2022-08-03T05:41:49;97162.19;;;15.81;94.06
55032;BME280;40928;51.076;7.950;2022-08-03T05:44:15;97169.50;;;15.91;94.06
55032;BME280;40928;51.076;7.950;2022-08-03T05:46:40;97162.75;;;15.98;94.24
55032;BME280;40928;51.076;7.950;2022-08-03T05:49:06;97163.81;;;16.08;94.07
55032;BME280;40928;51.076;7.950;2022-08-03T05:51:31;97167.31;;;16.13;93.87
55032;BME280;40928;51.076;7.950;2022-08-03T05:53:57;97167.03;;;16.20;93.63
55032;BME280;40928;51.076;7.950;2022-08-03T05:56:23;97163.78;;;16.28;93.67
55032;BME280;40928;51.076;7.950;2022-08-03T05:58:49;97165.91;;;16.37;93.18
55032;BME280;40928;51.076;7.950;2022-08-03T06:01:17;97164.56;;;16.44;93.36
55032;BME280;40928;51.076;7.950;2022-08-03T06:03:43;97161.31;;;16.53;92.97
55032;BME280;40928;51.076;7.950;2022-08-03T06:06:09;97162.34;;;16.62;92.66
55032;BME280;40928;51.076;7.950;2022-08-03T06:08:35;97158.28;;;16.70;92.30
55032;BME280;40928;51.076;7.950;2022-08-03T06:11:02;97166.34;;;16.80;91.96
55032;BME280;40928;51.076;7.950;2022-08-03T06:13:28;97162.00;;;16.89;91.38
55032;BME280;40928;51.076;7.950;2022-08-03T06:15:54;97164.13;;;16.98;91.01
55032;BME280;40928;51.076;7.950;2022-08-03T06:18:19;97169.50;;;17.08;90.51
55032;BME280;40928;51.076;7.950;2022-08-03T06:20:45;97157.84;;;17.18;90.21
55032;BME280;40928;51.076;7.950;2022-08-03T06:23:11;97168.88;;;17.27;89.91
55032;BME280;40928;51.076;7.950;2022-08-03T06:25:37;97159.88;;;17.37;89.75
55032;BME280;40928;51.076;7.950;2022-08-03T06:28:03;97156.84;;;17.48;89.74
55032;BME280;40928;51.076;7.950;2022-08-03T06:30:29;97158.13;;;17.61;89.18
55032;BME280;40928;51.076;7.950;2022-08-03T06:32:55;97158.84;;;17.72;88.12
55032;BME280;40928;51.076;7.950;2022-08-03T06:35:21;97155.81;;;17.79;87.86
55032;BME280;40928;51.076;7.950;2022-08-03T06:37:49;97154.31;;;17.97;87.26
55032;BME280;40928;51.076;7.950;2022-08-03T06:40:18;97153.41;;;18.12;86.45
55032;BME280;40928;51.076;7.950;2022-08-03T06:42:45;97160.03;;;18.25;85.62
55032;BME280;40928;51.076;7.950;2022-08-03T06:45:11;97166.66;;;18.38;85.97
55032;BME280;40928;51.076;7.950;2022-08-03T06:47:38;97164.59;;;18.54;85.31
55032;BME280;40928;51.076;7.950;2022-08-03T06:50:05;97166.91;;;18.66;84.88
55032;BME280;40928;51.076;7.950;2022-08-03T06:52:32;97158.41;;;18.78;84.94
55032;BME280;40928;51.076;7.950;2022-08-03T06:54:58;97166.63;;;18.92;84.98
55032;BME280;40928;51.076;7.950;2022-08-03T06:57:27;97168.94;;;19.04;84.62
55032;BME280;40928;51.076;7.950;2022-08-03T06:59:53;97168.81;;;19.14;84.44
55032;BME280;40928;51.076;7.950;2022-08-03T07:02:20;97173.19;;;19.29;84.45
55032;BME280;40928;51.076;7.950;2022-08-03T07:04:47;97166.47;;;19.45;84.20
55032;BME280;40928;51.076;7.950;2022-08-03T07:07:13;97174.31;;;19.66;83.59
55032;BME280;40928;51.076;7.950;2022-08-03T07:09:39;97172.66;;;19.84;83.07
55032;BME280;40928;51.076;7.950;2022-08-03T07:12:05;97173.25;;;20.00;82.22
55032;BME280;40928;51.076;7.950;2022-08-03T07:14:31;97165.47;;;20.13;81.71
55032;BME280;40928;51.076;7.950;2022-08-03T07:16:57;97171.84;;;20.36;80.94
55032;BME280;40928;51.076;7.950;2022-08-03T07:19:22;97175.75;;;20.58;80.15
55032;BME280;40928;51.076;7.950;2022-08-03T07:21:48;97180.31;;;20.76;79.53
55032;BME280;40928;51.076;7.950;2022-08-03T07:24:15;97170.44;;;20.94;77.42
55032;BME280;40928;51.076;7.950;2022-08-03T07:26:41;97180.09;;;21.14;76.62
55032;BME280;40928;51.076;7.950;2022-08-03T07:29:06;97177.06;;;21.30;75.53
55032;BME280;40928;51.076;7.950;2022-08-03T07:31:32;97177.59;;;21.55;69.54
55032;BME280;40928;51.076;7.950;2022-08-03T07:33:58;97177.41;;;22.11;62.37
55032;BME280;40928;51.076;7.950;2022-08-03T07:36:24;97174.63;;;22.33;61.26
55032;BME280;40928;51.076;7.950;2022-08-03T07:38:50;97175.78;;;22.64;59.77
55032;BME280;40928;51.076;7.950;2022-08-03T07:41:16;97179.50;;;22.77;59.23
55032;BME280;40928;51.076;7.950;2022-08-03T07:43:42;97180.84;;;22.88;58.47
55032;BME280;40928;51.076;7.950;2022-08-03T07:46:08;97183.28;;;23.07;57.57
55032;BME280;40928;51.076;7.950;2022-08-03T07:48:33;97177.03;;;23.07;58.39
55032;BME280;40928;51.076;7.950;2022-08-03T07:50:59;97175.28;;;23.20;57.53
55032;BME280;40928;51.076;7.950;2022-08-03T07:53:25;97182.03;;;23.22;57.81
55032;BME280;40928;51.076;7.950;2022-08-03T07:55:51;97178.25;;;23.50;55.37
55032;BME280;40928;51.076;7.950;2022-08-03T07:58:17;97180.63;;;23.51;55.08
55032;BME280;40928;51.076;7.950;2022-08-03T08:00:43;97178.41;;;23.53;56.87
55032;BME280;40928;51.076;7.950;2022-08-03T08:03:10;97179.69;;;23.74;54.92
55032;BME280;40928;51.076;7.950;2022-08-03T08:05:37;97182.09;;;23.75;55.24
55032;BME280;40928;51.076;7.950;2022-08-03T08:08:03;97184.19;;;23.78;54.80
55032;BME280;40928;51.076;7.950;2022-08-03T08:10:30;97177.94;;;24.04;53.81
55032;BME280;40928;51.076;7.950;2022-08-03T08:12:57;97185.31;;;24.12;53.28
55032;BME280;40928;51.076;7.950;2022-08-03T08:15:23;97178.38;;;24.24;52.98
55032;BME280;40928;51.076;7.950;2022-08-03T08:17:52;97181.38;;;24.31;52.68
55032;BME280;40928;51.076;7.950;2022-08-03T08:20:22;97173.88;;;24.28;52.81
55032;BME280;40928;51.076;7.950;2022-08-03T08:22:49;97171.28;;;24.31;52.53
55032;BME280;40928;51.076;7.950;2022-08-03T08:25:16;97169.03;;;24.33;53.34
55032;BME280;40928;51.076;7.950;2022-08-03T08:27:46;97173.00;;;24.45;52.68
55032;BME280;40928;51.076;7.950;2022-08-03T08:30:13;97181.66;;;24.56;50.75
55032;BME280;40928;51.076;7.950;2022-08-03T08:32:40;97174.22;;;24.65;51.10
55032;BME280;40928;51.076;7.950;2022-08-03T08:35:07;97170.69;;;24.65;51.10
55032;BME280;40928;51.076;7.950;2022-08-03T08:37:34;97172.31;;;24.74;51.80
55032;BME280;40928;51.076;7.950;2022-08-03T08:39:59;97165.50;;;24.81;50.94
55032;BME280;40928;51.076;7.950;2022-08-03T08:42:25;97165.84;;;24.79;51.66
55032;BME280;40928;51.076;7.950;2022-08-03T08:44:51;97167.09;;;24.82;51.01
55032;BME280;40928;51.076;7.950;2022-08-03T08:47:18;97159.06;;;24.85;51.44
55032;BME280;40928;51.076;7.950;2022-08-03T08:49:45;97169.31;;;25.18;49.61
55032;BME280;40928;51.076;7.950;2022-08-03T08:52:12;97176.06;;;25.21;50.17
55032;BME280;40928;51.076;7.950;2022-08-03T08:54:40;97173.06;;;25.35;48.45
55032;BME280;40928;51.076;7.950;2022-08-03T08:57:06;97166.28;;;25.41;48.00
55032;BME280;40928;51.076;7.950;2022-08-03T08:59:33;97170.78;;;25.46;48.63
55032;BME280;40928;51.076;7.950;2022-08-03T09:01:59;97169.56;;;25.56;48.45
55032;BME280;40928;51.076;7.950;2022-08-03T09:04:27;97167.25;;;25.66;48.51
55032;BME280;40928;51.076;7.950;2022-08-03T09:06:53;97165.22;;;25.76;49.26
55032;BME280;40928;51.076;7.950;2022-08-03T09:09:19;97165.22;;;25.76;48.52
55032;BME280;40928;51.076;7.950;2022-08-03T09:11:48;97161.75;;;25.88;47.93
55032;BME280;40928;51.076;7.950;2022-08-03T09:14:14;97174.22;;;25.97;46.84
55032;BME280;40928;51.076;7.950;2022-08-03T09:16:55;97169.53;;;25.98;46.84
55032;BME280;40928;51.076;7.950;2022-08-03T09:19:23;97170.78;;;26.00;46.08
55032;BME280;40928;51.076;7.950;2022-08-03T09:22:10;97166.69;;;26.07;46.23
55032;BME280;40928;51.076;7.950;2022-08-03T09:24:38;97159.00;;;26.21;45.87
55032;BME280;40928;51.076;7.950;2022-08-03T09:27:17;97170.00;;;26.34;45.47
55032;BME280;40928;51.076;7.950;2022-08-03T09:29:47;97170.22;;;26.28;45.49
55032;BME280;40928;51.076;7.950;2022-08-03T09:32:13;97164.03;;;26.32;45.51
55032;BME280;40928;51.076;7.950;2022-08-03T09:34:38;97168.19;;;26.50;44.69
55032;BME280;40928;51.076;7.950;2022-08-03T09:37:12;97166.16;;;26.59;44.50
55032;BME280;40928;51.076;7.950;2022-08-03T09:39:38;97163.78;;;26.70;44.60
55032;BME280;40928;51.076;7.950;2022-08-03T09:42:12;97157.72;;;26.77;45.12
55032;BME280;40928;51.076;7.950;2022-08-03T09:44:43;97154.91;;;26.86;44.19
55032;BME280;40928;51.076;7.950;2022-08-03T09:47:12;97156.50;;;26.99;43.87
55032;BME280;40928;51.076;7.950;2022-08-03T09:49:39;97150.19;;;27.11;43.85
55032;BME280;40928;51.076;7.950;2022-08-03T09:52:18;97155.41;;;27.29;43.05
55032;BME280;40928;51.076;7.950;2022-08-03T09:54:50;97166.81;;;27.56;41.98
55032;BME280;40928;51.076;7.950;2022-08-03T09:57:20;97148.28;;;27.65;41.46
55032;BME280;40928;51.076;7.950;2022-08-03T09:59:47;97153.00;;;27.80;41.82
55032;BME280;40928;51.076;7.950;2022-08-03T10:02:23;97152.78;;;27.86;41.72
55032;BME280;40928;51.076;7.950;2022-08-03T10:04:49;97152.34;;;28.00;42.11
55032;BME280;40928;51.076;7.950;2022-08-03T10:07:18;97147.25;;;28.14;41.17
55032;BME280;40928;51.076;7.950;2022-08-03T10:09:56;97155.34;;;28.23;40.93
55032;BME280;40928;51.076;7.950;2022-08-03T10:12:22;97154.63;;;28.26;40.61
55032;BME280;40928;51.076;7.950;2022-08-03T10:14:48;97151.66;;;28.31;40.13
55032;BME280;40928;51.076;7.950;2022-08-03T10:17:14;97148.34;;;28.41;39.76
55032;BME280;40928;51.076;7.950;2022-08-03T10:19:40;97147.66;;;28.45;38.60
55032;BME280;40928;51.076;7.950;2022-08-03T10:22:10;97136.13;;;28.55;39.09
55032;BME280;40928;51.076;7.950;2022-08-03T10:24:38;97146.75;;;28.72;39.14
55032;BME280;40928;51.076;7.950;2022-08-03T10:27:08;97152.19;;;28.85;38.43
55032;BME280;40928;51.076;7.950;2022-08-03T10:29:42;97152.41;;;29.12;37.91
55032;BME280;40928;51.076;7.950;2022-08-03T10:32:27;97146.94;;;29.31;37.63
55032;BME280;40928;51.076;7.950;2022-08-03T10:35:03;97142.50;;;29.43;37.53
55032;BME280;40928;51.076;7.950;2022-08-03T10:37:31;97141.06;;;29.69;38.10
55032;BME280;40928;51.076;7.950;2022-08-03T10:39:59;97141.22;;;29.56;37.61
55032;BME280;40928;51.076;7.950;2022-08-03T10:42:27;97135.13;;;29.67;37.43
55032;BME280;40928;51.076;7.950;2022-08-03T10:45:02;97144.22;;;30.10;36.95
55032;BME280;40928;51.076;7.950;2022-08-03T10:47:30;97127.78;;;30.37;36.30
55032;BME280;40928;51.076;7.950;2022-08-03T10:49:56;97131.56;;;30.52;36.06
55032;BME280;40928;51.076;7.950;2022-08-03T10:52:22;97129.56;;;30.72;36.35
55032;BME280;40928;51.076;7.950;2022-08-03T10:54:47;97119.81;;;31.05;34.95
55032;BME280;40928;51.076;7.950;2022-08-03T10:57:51;97123.78;;;31.08;34.82
55032;BME280;40928;51.076;7.950;2022-08-03T11:00:22;97113.44;;;31.01;33.91
55032;BME280;40928;51.076;7.950;2022-08-03T11:03:05;97113.00;;;30.99;34.28
55032;BME280;40928;51.076;7.950;2022-08-03T11:05:33;97111.16;;;31.07;34.16
55032;BME280;40928;51.076;7.950;2022-08-03T11:10:44;97105.28;;;31.08;33.15
55032;BME280;40928;51.076;7.950;2022-08-03T11:13:14;97101.09;;;31.18;33.79
55032;BME280;40928;51.076;7.950;2022-08-03T11:15:43;97108.34;;;31.30;33.77
55032;BME280;40928;51.076;7.950;2022-08-03T11:18:10;97104.13;;;31.70;32.80
55032;BME280;40928;51.076;7.950;2022-08-03T11:21:02;97099.00;;;32.07;33.19
55032;BME280;40928;51.076;7.950;2022-08-03T11:23:44;97096.25;;;32.10;32.35
55032;BME280;40928;51.076;7.950;2022-08-03T11:26:12;97098.34;;;32.24;31.27
55032;BME280;40928;51.076;7.950;2022-08-03T11:28:38;97095.75;;;32.39;31.13
55032;BME280;40928;51.076;7.950;2022-08-03T11:34:07;97087.94;;;32.07;32.27
55032;BME280;40928;51.076;7.950;2022-08-03T11:39:47;97090.69;;;32.48;31.87
55032;BME280;40928;51.076;7.950;2022-08-03T11:44:56;97090.84;;;31.49;32.49
55032;BME280;40928;51.076;7.950;2022-08-03T11:47:24;97090.34;;;31.70;33.31
55032;BME280;40928;51.076;7.950;2022-08-03T11:49:53;97093.94;;;31.74;32.63
55032;BME280;40928;51.076;7.950;2022-08-03T11:52:20;97089.00;;;31.95;32.12
55032;BME280;40928;51.076;7.950;2022-08-03T11:54:50;97089.94;;;32.10;32.43
55032;BME280;40928;51.076;7.950;2022-08-03T11:57:28;97096.09;;;32.33;31.78
55032;BME280;40928;51.076;7.950;2022-08-03T11:59:54;97095.38;;;32.40;31.29
55032;BME280;40928;51.076;7.950;2022-08-03T12:02:20;97094.50;;;32.32;30.95
55032;BME280;40928;51.076;7.950;2022-08-03T12:04:53;97084.88;;;32.15;32.01
55032;BME280;40928;51.076;7.950;2022-08-03T12:07:23;97085.38;;;31.87;31.99
55032;BME280;40928;51.076;7.950;2022-08-03T12:10:11;97088.81;;;32.14;31.79
55032;BME280;40928;51.076;7.950;2022-08-03T12:12:37;97093.66;;;31.87;31.37
55032;BME280;40928;51.076;7.950;2022-08-03T12:15:04;97093.25;;;31.85;31.75
55032;BME280;40928;51.076;7.950;2022-08-03T12:17:37;97085.38;;;31.87;31.72
55032;BME280;40928;51.076;7.950;2022-08-03T12:20:05;97083.09;;;31.96;32.52
55032;BME280;40928;51.076;7.950;2022-08-03T12:22:38;97084.63;;;31.90;30.85
55032;BME280;40928;51.076;7.950;2022-08-03T12:25:05;97085.44;;;31.94;31.85
55032;BME280;40928;51.076;7.950;2022-08-03T12:27:31;97078.81;;;32.02;31.53
55032;BME280;40928;51.076;7.950;2022-08-03T12:29:58;97085.56;;;32.09;31.99
55032;BME280;40928;51.076;7.950;2022-08-03T12:32:25;97070.41;;;31.88;32.08
55032;BME280;40928;51.076;7.950;2022-08-03T12:34:50;97079.22;;;31.67;31.79
55032;BME280;40928;51.076;7.950;2022-08-03T12:37:21;97077.56;;;31.62;32.17
55032;BME280;40928;51.076;7.950;2022-08-03T12:39:55;97072.44;;;31.61;32.57
55032;BME280;40928;51.076;7.950;2022-08-03T12:42:20;97075.72;;;31.70;31.87
55032;BME280;40928;51.076;7.950;2022-08-03T12:44:46;97069.19;;;31.51;32.55
55032;BME280;40928;51.076;7.950;2022-08-03T12:47:13;97074.44;;;31.60;32.17
55032;BME280;40928;51.076;7.950;2022-08-03T12:49:48;97060.81;;;31.74;32.00
55032;BME280;40928;51.076;7.950;2022-08-03T12:52:14;97059.16;;;31.70;31.92
55032;BME280;40928;51.076;7.950;2022-08-03T12:54:40;97063.56;;;31.74;32.71
55032;BME280;40928;51.076;7.950;2022-08-03T12:57:11;97063.63;;;31.48;31.46
55032;BME280;40928;51.076;7.950;2022-08-03T12:59:39;97066.47;;;31.55;31.95
55032;BME280;40928;51.076;7.950;2022-08-03T13:04:43;97071.84;;;31.74;33.28
55032;BME280;40928;51.076;7.950;2022-08-03T13:07:10;97058.78;;;31.37;31.72
55032;BME280;40928;51.076;7.950;2022-08-03T13:09:50;97067.22;;;31.52;31.76
55032;BME280;40928;51.076;7.950;2022-08-03T13:12:22;97053.53;;;31.59;32.59
55032;BME280;40928;51.076;7.950;2022-08-03T13:14:59;97060.25;;;31.62;31.92
55032;BME280;40928;51.076;7.950;2022-08-03T13:17:25;97054.50;;;31.78;32.23
55032;BME280;40928;51.076;7.950;2022-08-03T13:19:51;97061.84;;;32.00;31.45
55032;BME280;40928;51.076;7.950;2022-08-03T13:22:19;97047.56;;;31.91;31.25
55032;BME280;40928;51.076;7.950;2022-08-03T13:24:46;97055.72;;;31.77;31.51
55032;BME280;40928;51.076;7.950;2022-08-03T13:27:13;97053.63;;;31.70;31.85
55032;BME280;40928;51.076;7.950;2022-08-03T13:29:39;97063.25;;;31.49;31.53